ADZ weather

Gustavo Rojas Pinilla International Airport
San Andrés, San Andrés, Providencia y Santa Catalina Department, Colombia

Public forecast

Using degrees Celsius for public forecast. Weather courtesy of forecast.io.

METAR (pilot weather report)

Retrieved 2019/06/18 22:00 UTC (3 minutes ago):

SKSP 182200Z 06011KT 9999 FEW018 31/25 A2982

TAF (pilot weather forecast)

Retrieved 2019/06/18 18:59 UTC (3 hours ago):

TAF COR SKSP 181630Z 1818/1918 07014KT 9999 FEW018 SCT090 TX33/1819Z TN27/1911Z